sensor_id;sensor_type;location;lat;lon;timestamp;temperature;humidity
14962;DHT22;56489;53.166;10.864;2022-08-19T00:01:23;19.80;99.90
14962;DHT22;56489;53.166;10.864;2022-08-19T00:03:56;19.80;99.90
14962;DHT22;56489;53.166;10.864;2022-08-19T00:06:22;19.80;99.90
14962;DHT22;56489;53.166;10.864;2022-08-19T00:08:49;19.70;99.90
14962;DHT22;56489;53.166;10.864;2022-08-19T00:11:18;19.80;99.90
14962;DHT22;56489;53.166;10.864;2022-08-19T00:13:52;19.80;99.90
14962;DHT22;56489;53.166;10.864;2022-08-19T00:16:19;19.80;99.90
14962;DHT22;56489;53.166;10.864;2022-08-19T00:18:53;19.80;99.90
14962;DHT22;56489;53.166;10.864;2022-08-19T00:21:20;19.70;99.90
14962;DHT22;56489;53.166;10.864;2022-08-19T00:23:47;19.70;99.90
14962;DHT22;56489;53.166;10.864;2022-08-19T00:26:14;19.70;99.90
14962;DHT22;56489;53.166;10.864;2022-08-19T00:28:41;19.70;99.90
14962;DHT22;56489;53.166;10.864;2022-08-19T00:31:08;19.60;99.90
14962;DHT22;56489;53.166;10.864;2022-08-19T00:33:35;19.60;99.90
14962;DHT22;56489;53.166;10.864;2022-08-19T00:36:05;19.60;99.90
14962;DHT22;56489;53.166;10.864;2022-08-19T00:38:34;19.60;99.90
14962;DHT22;56489;53.166;10.864;2022-08-19T00:41:06;19.50;99.90
14962;DHT22;56489;53.166;10.864;2022-08-19T00:43:32;19.50;99.90
14962;DHT22;56489;53.166;10.864;2022-08-19T00:45:59;19.50;99.90
14962;DHT22;56489;53.166;10.864;2022-08-19T00:48:27;19.60;99.90
14962;DHT22;56489;53.166;10.864;2022-08-19T00:50:54;19.60;99.90
14962;DHT22;56489;53.166;10.864;2022-08-19T00:53:24;19.50;99.90
14962;DHT22;56489;53.166;10.864;2022-08-19T00:55:54;19.60;99.90
14962;DHT22;56489;53.166;10.864;2022-08-19T00:58:26;19.50;99.90
14962;DHT22;56489;53.166;10.864;2022-08-19T01:00:54;19.50;99.90
14962;DHT22;56489;53.166;10.864;2022-08-19T01:03:21;19.60;99.90
14962;DHT22;56489;53.166;10.864;2022-08-19T01:05:49;19.60;99.90
14962;DHT22;56489;53.166;10.864;2022-08-19T01:08:18;19.50;99.90
14962;DHT22;56489;53.166;10.864;2022-08-19T01:10:52;19.60;99.90
14962;DHT22;56489;53.166;10.864;2022-08-19T01:13:22;19.50;99.90
14962;DHT22;56489;53.166;10.864;2022-08-19T01:15:56;19.50;99.90
14962;DHT22;56489;53.166;10.864;2022-08-19T01:18:24;19.50;99.90
14962;DHT22;56489;53.166;10.864;2022-08-19T01:20:52;19.40;99.90
14962;DHT22;56489;53.166;10.864;2022-08-19T01:23:20;19.40;99.90
14962;DHT22;56489;53.166;10.864;2022-08-19T01:25:50;19.40;99.90
14962;DHT22;56489;53.166;10.864;2022-08-19T01:28:24;19.30;99.90
14962;DHT22;56489;53.166;10.864;2022-08-19T01:30:59;19.40;99.90
14962;DHT22;56489;53.166;10.864;2022-08-19T01:33:33;19.40;99.90
14962;DHT22;56489;53.166;10.864;2022-08-19T01:36:10;19.30;99.90
14962;DHT22;56489;53.166;10.864;2022-08-19T01:38:40;19.40;99.90
14962;DHT22;56489;53.166;10.864;2022-08-19T01:41:11;19.30;99.90
14962;DHT22;56489;53.166;10.864;2022-08-19T01:43:38;19.30;99.90
14962;DHT22;56489;53.166;10.864;2022-08-19T01:46:25;19.30;99.90
14962;DHT22;56489;53.166;10.864;2022-08-19T01:48:51;19.30;99.90
14962;DHT22;56489;53.166;10.864;2022-08-19T01:51:18;19.20;99.90
14962;DHT22;56489;53.166;10.864;2022-08-19T01:53:48;19.20;99.90
14962;DHT22;56489;53.166;10.864;2022-08-19T01:56:17;19.20;99.90
14962;DHT22;56489;53.166;10.864;2022-08-19T01:58:52;19.20;99.90
14962;DHT22;56489;53.166;10.864;2022-08-19T02:01:19;19.10;99.90
14962;DHT22;56489;53.166;10.864;2022-08-19T02:03:46;19.10;99.90
14962;DHT22;56489;53.166;10.864;2022-08-19T02:06:13;19.10;99.90
14962;DHT22;56489;53.166;10.864;2022-08-19T02:08:40;19.10;99.90
14962;DHT22;56489;53.166;10.864;2022-08-19T02:11:07;19.10;99.90
14962;DHT22;56489;53.166;10.864;2022-08-19T02:13:34;19.10;99.90
14962;DHT22;56489;53.166;10.864;2022-08-19T02:16:00;19.10;99.90
14962;DHT22;56489;53.166;10.864;2022-08-19T02:18:29;19.10;99.90
14962;DHT22;56489;53.166;10.864;2022-08-19T02:20:56;19.10;99.90
14962;DHT22;56489;53.166;10.864;2022-08-19T02:23:23;19.10;99.90
14962;DHT22;56489;53.166;10.864;2022-08-19T02:25:51;19.00;99.90
14962;DHT22;56489;53.166;10.864;2022-08-19T02:28:17;19.10;99.90
14962;DHT22;56489;53.166;10.864;2022-08-19T02:30:45;19.00;99.90
14962;DHT22;56489;53.166;10.864;2022-08-19T02:33:12;19.00;99.90
14962;DHT22;56489;53.166;10.864;2022-08-19T02:35:46;18.90;99.90
14962;DHT22;56489;53.166;10.864;2022-08-19T02:38:13;18.90;99.90
14962;DHT22;56489;53.166;10.864;2022-08-19T02:40:55;18.90;99.90
14962;DHT22;56489;53.166;10.864;2022-08-19T02:43:23;18.90;99.90
14962;DHT22;56489;53.166;10.864;2022-08-19T02:45:50;18.90;99.90
14962;DHT22;56489;53.166;10.864;2022-08-19T02:48:19;18.90;99.90
14962;DHT22;56489;53.166;10.864;2022-08-19T02:50:49;18.90;99.90
14962;DHT22;56489;53.166;10.864;2022-08-19T02:53:25;18.90;99.90
14962;DHT22;56489;53.166;10.864;2022-08-19T02:55:52;18.90;99.90
14962;DHT22;56489;53.166;10.864;2022-08-19T02:58:20;18.90;99.90
14962;DHT22;56489;53.166;10.864;2022-08-19T03:00:50;18.90;99.90
14962;DHT22;56489;53.166;10.864;2022-08-19T03:03:18;18.90;99.90
14962;DHT22;56489;53.166;10.864;2022-08-19T03:05:45;18.90;99.90
14962;DHT22;56489;53.166;10.864;2022-08-19T03:08:23;18.80;99.90
14962;DHT22;56489;53.166;10.864;2022-08-19T03:10:50;18.90;99.90
14962;DHT22;56489;53.166;10.864;2022-08-19T03:13:18;18.90;99.90
14962;DHT22;56489;53.166;10.864;2022-08-19T03:15:46;18.90;99.90
14962;DHT22;56489;53.166;10.864;2022-08-19T03:18:14;19.00;99.90
14962;DHT22;56489;53.166;10.864;2022-08-19T03:20:49;18.90;99.90
14962;DHT22;56489;53.166;10.864;2022-08-19T03:23:16;19.00;99.90
14962;DHT22;56489;53.166;10.864;2022-08-19T03:25:48;18.90;99.90
14962;DHT22;56489;53.166;10.864;2022-08-19T03:28:36;19.00;99.90
14962;DHT22;56489;53.166;10.864;2022-08-19T03:31:07;19.00;99.90
14962;DHT22;56489;53.166;10.864;2022-08-19T03:33:55;19.10;99.90
14962;DHT22;56489;53.166;10.864;2022-08-19T03:36:24;19.00;99.90
14962;DHT22;56489;53.166;10.864;2022-08-19T03:38:58;19.10;99.90
14962;DHT22;56489;53.166;10.864;2022-08-19T03:41:30;19.10;99.90
14962;DHT22;56489;53.166;10.864;2022-08-19T03:44:13;19.10;99.90
14962;DHT22;56489;53.166;10.864;2022-08-19T03:46:48;19.10;99.90
14962;DHT22;56489;53.166;10.864;2022-08-19T03:49:16;19.00;99.90
14962;DHT22;56489;53.166;10.864;2022-08-19T03:51:45;19.00;99.90
14962;DHT22;56489;53.166;10.864;2022-08-19T03:54:14;19.00;99.90
14962;DHT22;56489;53.166;10.864;2022-08-19T03:56:42;19.10;99.90
14962;DHT22;56489;53.166;10.864;2022-08-19T03:59:12;19.10;99.90
14962;DHT22;56489;53.166;10.864;2022-08-19T04:01:40;19.10;99.90
14962;DHT22;56489;53.166;10.864;2022-08-19T04:04:07;19.00;99.90
14962;DHT22;56489;53.166;10.864;2022-08-19T04:06:36;19.10;99.90
14962;DHT22;56489;53.166;10.864;2022-08-19T04:09:08;19.10;99.90
14962;DHT22;56489;53.166;10.864;2022-08-19T04:11:39;19.10;99.90
14962;DHT22;56489;53.166;10.864;2022-08-19T04:14:17;19.10;99.90
14962;DHT22;56489;53.166;10.864;2022-08-19T04:16:46;19.00;99.90
14962;DHT22;56489;53.166;10.864;2022-08-19T04:19:13;19.10;99.90
14962;DHT22;56489;53.166;10.864;2022-08-19T04:21:44;19.10;99.90
14962;DHT22;56489;53.166;10.864;2022-08-19T04:24:12;19.00;99.90
14962;DHT22;56489;53.166;10.864;2022-08-19T04:26:39;19.10;99.90
14962;DHT22;56489;53.166;10.864;2022-08-19T04:29:11;19.10;99.90
14962;DHT22;56489;53.166;10.864;2022-08-19T04:31:39;19.10;99.90
14962;DHT22;56489;53.166;10.864;2022-08-19T04:34:09;19.00;99.90
14962;DHT22;56489;53.166;10.864;2022-08-19T04:36:40;19.00;99.90
14962;DHT22;56489;53.166;10.864;2022-08-19T04:39:10;19.10;99.90
14962;DHT22;56489;53.166;10.864;2022-08-19T04:41:37;19.10;99.90
14962;DHT22;56489;53.166;10.864;2022-08-19T04:44:22;19.10;99.90
14962;DHT22;56489;53.166;10.864;2022-08-19T04:46:50;19.00;99.90
14962;DHT22;56489;53.166;10.864;2022-08-19T04:49:22;19.00;99.90
14962;DHT22;56489;53.166;10.864;2022-08-19T04:51:50;19.00;99.90
14962;DHT22;56489;53.166;10.864;2022-08-19T04:54:18;19.10;99.90
14962;DHT22;56489;53.166;10.864;2022-08-19T04:57:06;19.10;99.90
14962;DHT22;56489;53.166;10.864;2022-08-19T04:59:34;19.10;99.90
14962;DHT22;56489;53.166;10.864;2022-08-19T05:02:02;19.00;99.90
14962;DHT22;56489;53.166;10.864;2022-08-19T05:04:29;19.10;99.90
14962;DHT22;56489;53.166;10.864;2022-08-19T05:06:59;19.10;99.90
14962;DHT22;56489;53.166;10.864;2022-08-19T05:09:28;19.10;99.90
14962;DHT22;56489;53.166;10.864;2022-08-19T05:12:15;19.10;99.90
14962;DHT22;56489;53.166;10.864;2022-08-19T05:14:42;19.10;99.90
14962;DHT22;56489;53.166;10.864;2022-08-19T05:17:08;19.00;99.90
14962;DHT22;56489;53.166;10.864;2022-08-19T05:19:54;19.10;99.90
14962;DHT22;56489;53.166;10.864;2022-08-19T05:22:39;19.10;99.90
14962;DHT22;56489;53.166;10.864;2022-08-19T05:25:13;19.10;99.90
14962;DHT22;56489;53.166;10.864;2022-08-19T05:27:41;19.20;99.90
14962;DHT22;56489;53.166;10.864;2022-08-19T05:30:08;19.20;99.90
14962;DHT22;56489;53.166;10.864;2022-08-19T05:32:35;19.20;99.90
14962;DHT22;56489;53.166;10.864;2022-08-19T05:35:03;19.20;99.90
14962;DHT22;56489;53.166;10.864;2022-08-19T05:37:30;19.20;99.90
14962;DHT22;56489;53.166;10.864;2022-08-19T05:39:56;19.20;99.90
14962;DHT22;56489;53.166;10.864;2022-08-19T05:42:23;19.20;99.90
14962;DHT22;56489;53.166;10.864;2022-08-19T05:44:50;19.20;99.90
14962;DHT22;56489;53.166;10.864;2022-08-19T05:47:18;19.20;99.90
14962;DHT22;56489;53.166;10.864;2022-08-19T05:49:48;19.30;99.90
14962;DHT22;56489;53.166;10.864;2022-08-19T05:52:17;19.30;99.90
14962;DHT22;56489;53.166;10.864;2022-08-19T05:54:45;19.30;99.90
14962;DHT22;56489;53.166;10.864;2022-08-19T05:57:17;19.30;99.90
14962;DHT22;56489;53.166;10.864;2022-08-19T05:59:44;19.40;99.90
14962;DHT22;56489;53.166;10.864;2022-08-19T06:02:25;19.30;99.90
14962;DHT22;56489;53.166;10.864;2022-08-19T06:04:52;19.40;99.90
14962;DHT22;56489;53.166;10.864;2022-08-19T06:07:18;19.50;99.90
14962;DHT22;56489;53.166;10.864;2022-08-19T06:09:45;19.40;99.90
14962;DHT22;56489;53.166;10.864;2022-08-19T06:12:30;19.50;99.90
14962;DHT22;56489;53.166;10.864;2022-08-19T06:15:00;19.60;99.90
14962;DHT22;56489;53.166;10.864;2022-08-19T06:17:31;19.70;99.90
14962;DHT22;56489;53.166;10.864;2022-08-19T06:19:58;20.00;99.90
14962;DHT22;56489;53.166;10.864;2022-08-19T06:22:26;19.70;99.90
14962;DHT22;56489;53.166;10.864;2022-08-19T06:24:53;19.90;99.90
14962;DHT22;56489;53.166;10.864;2022-08-19T06:27:21;19.80;99.90
14962;DHT22;56489;53.166;10.864;2022-08-19T06:29:48;19.70;99.90
14962;DHT22;56489;53.166;10.864;2022-08-19T06:32:16;19.80;99.90
14962;DHT22;56489;53.166;10.864;2022-08-19T06:34:42;19.90;99.90
14962;DHT22;56489;53.166;10.864;2022-08-19T06:37:10;19.90;99.90
14962;DHT22;56489;53.166;10.864;2022-08-19T06:39:39;19.90;99.90
14962;DHT22;56489;53.166;10.864;2022-08-19T06:42:06;20.00;99.90
14962;DHT22;56489;53.166;10.864;2022-08-19T06:44:37;20.00;99.90
14962;DHT22;56489;53.166;10.864;2022-08-19T06:47:11;20.00;99.90
14962;DHT22;56489;53.166;10.864;2022-08-19T06:49:48;20.00;99.90
14962;DHT22;56489;53.166;10.864;2022-08-19T06:52:15;20.10;99.90
14962;DHT22;56489;53.166;10.864;2022-08-19T06:54:42;20.20;99.90
14962;DHT22;56489;53.166;10.864;2022-08-19T06:57:22;20.30;99.90
14962;DHT22;56489;53.166;10.864;2022-08-19T06:59:49;20.20;99.90
14962;DHT22;56489;53.166;10.864;2022-08-19T07:02:16;20.30;99.90
14962;DHT22;56489;53.166;10.864;2022-08-19T07:04:43;20.30;99.90
14962;DHT22;56489;53.166;10.864;2022-08-19T07:07:12;20.20;99.90
14962;DHT22;56489;53.166;10.864;2022-08-19T07:09:47;20.30;99.90
14962;DHT22;56489;53.166;10.864;2022-08-19T07:12:24;20.40;99.90
14962;DHT22;56489;53.166;10.864;2022-08-19T07:14:51;20.30;99.90
14962;DHT22;56489;53.166;10.864;2022-08-19T07:17:20;20.40;99.90
14962;DHT22;56489;53.166;10.864;2022-08-19T07:19:47;20.30;99.90
14962;DHT22;56489;53.166;10.864;2022-08-19T07:22:14;20.30;99.90
14962;DHT22;56489;53.166;10.864;2022-08-19T07:24:42;20.20;99.90
14962;DHT22;56489;53.166;10.864;2022-08-19T07:27:17;20.10;99.90
14962;DHT22;56489;53.166;10.864;2022-08-19T07:29:50;20.10;99.90
14962;DHT22;56489;53.166;10.864;2022-08-19T07:32:23;20.10;99.90
14962;DHT22;56489;53.166;10.864;2022-08-19T07:34:52;20.10;99.90
14962;DHT22;56489;53.166;10.864;2022-08-19T07:37:18;20.00;99.90
14962;DHT22;56489;53.166;10.864;2022-08-19T07:39:45;20.00;99.90
14962;DHT22;56489;53.166;10.864;2022-08-19T07:42:12;20.00;99.90
14962;DHT22;56489;53.166;10.864;2022-08-19T07:44:40;20.00;99.90
14962;DHT22;56489;53.166;10.864;2022-08-19T07:47:07;20.10;99.90
14962;DHT22;56489;53.166;10.864;2022-08-19T07:49:54;20.00;99.90
14962;DHT22;56489;53.166;10.864;2022-08-19T07:52:20;20.00;99.90
14962;DHT22;56489;53.166;10.864;2022-08-19T07:54:47;20.10;99.90
14962;DHT22;56489;53.166;10.864;2022-08-19T07:57:14;20.10;99.90
14962;DHT22;56489;53.166;10.864;2022-08-19T07:59:41;20.10;99.90
14962;DHT22;56489;53.166;10.864;2022-08-19T08:02:08;20.20;99.90
14962;DHT22;56489;53.166;10.864;2022-08-19T08:04:35;20.20;99.90
14962;DHT22;56489;53.166;10.864;2022-08-19T08:07:20;20.20;99.90
14962;DHT22;56489;53.166;10.864;2022-08-19T08:10:12;20.30;99.90
14962;DHT22;56489;53.166;10.864;2022-08-19T08:12:47;20.30;99.90
14962;DHT22;56489;53.166;10.864;2022-08-19T08:15:34;20.30;99.90
14962;DHT22;56489;53.166;10.864;2022-08-19T08:18:07;20.30;99.90
14962;DHT22;56489;53.166;10.864;2022-08-19T08:20:34;20.30;99.90
14962;DHT22;56489;53.166;10.864;2022-08-19T08:23:01;20.30;99.90
14962;DHT22;56489;53.166;10.864;2022-08-19T08:25:46;20.40;99.90
14962;DHT22;56489;53.166;10.864;2022-08-19T08:28:15;20.40;99.90
14962;DHT22;56489;53.166;10.864;2022-08-19T08:30:44;20.40;99.90
14962;DHT22;56489;53.166;10.864;2022-08-19T08:33:12;20.60;99.90
14962;DHT22;56489;53.166;10.864;2022-08-19T08:35:40;20.60;99.90
14962;DHT22;56489;53.166;10.864;2022-08-19T08:38:08;20.60;99.90
14962;DHT22;56489;53.166;10.864;2022-08-19T08:40:47;20.60;99.90
14962;DHT22;56489;53.166;10.864;2022-08-19T08:43:38;20.70;99.90
14962;DHT22;56489;53.166;10.864;2022-08-19T08:49:27;20.70;99.90
14962;DHT22;56489;53.166;10.864;2022-08-19T08:52:06;20.70;99.90
14962;DHT22;56489;53.166;10.864;2022-08-19T08:54:42;20.70;99.90
14962;DHT22;56489;53.166;10.864;2022-08-19T08:57:36;20.80;99.90
14962;DHT22;56489;53.166;10.864;2022-08-19T09:00:38;20.90;99.90
14962;DHT22;56489;53.166;10.864;2022-08-19T09:03:17;20.90;99.90
14962;DHT22;56489;53.166;10.864;2022-08-19T09:09:24;21.00;99.90
14962;DHT22;56489;53.166;10.864;2022-08-19T09:14:48;21.00;99.90
14962;DHT22;56489;53.166;10.864;2022-08-19T09:17:19;21.00;99.90
14962;DHT22;56489;53.166;10.864;2022-08-19T09:22:38;21.10;99.90
14962;DHT22;56489;53.166;10.864;2022-08-19T09:25:07;21.20;99.90
14962;DHT22;56489;53.166;10.864;2022-08-19T09:27:36;21.10;99.90
14962;DHT22;56489;53.166;10.864;2022-08-19T09:30:12;21.10;99.90
14962;DHT22;56489;53.166;10.864;2022-08-19T09:32:41;21.10;99.90
14962;DHT22;56489;53.166;10.864;2022-08-19T09:35:09;21.20;99.90
14962;DHT22;56489;53.166;10.864;2022-08-19T09:37:37;21.20;99.90
14962;DHT22;56489;53.166;10.864;2022-08-19T09:40:06;21.10;99.90
14962;DHT22;56489;53.166;10.864;2022-08-19T09:42:34;21.10;99.90
14962;DHT22;56489;53.166;10.864;2022-08-19T09:45:01;21.10;99.90
14962;DHT22;56489;53.166;10.864;2022-08-19T09:47:31;21.10;99.90
14962;DHT22;56489;53.166;10.864;2022-08-19T09:49:59;21.10;99.90
14962;DHT22;56489;53.166;10.864;2022-08-19T09:52:26;21.10;99.90
14962;DHT22;56489;53.166;10.864;2022-08-19T09:54:58;21.20;99.90
14962;DHT22;56489;53.166;10.864;2022-08-19T09:57:25;21.30;99.90
14962;DHT22;56489;53.166;10.864;2022-08-19T09:59:52;21.30;99.90
14962;DHT22;56489;53.166;10.864;2022-08-19T10:02:19;21.30;99.90
14962;DHT22;56489;53.166;10.864;2022-08-19T10:04:48;21.30;99.90
14962;DHT22;56489;53.166;10.864;2022-08-19T10:07:33;21.40;99.90
14962;DHT22;56489;53.166;10.864;2022-08-19T10:10:04;21.40;99.90
14962;DHT22;56489;53.166;10.864;2022-08-19T10:12:33;21.40;99.90
14962;DHT22;56489;53.166;10.864;2022-08-19T10:15:00;21.40;99.90
14962;DHT22;56489;53.166;10.864;2022-08-19T10:17:29;21.40;99.90
14962;DHT22;56489;53.166;10.864;2022-08-19T10:19:59;21.40;99.90
14962;DHT22;56489;53.166;10.864;2022-08-19T10:22:26;21.40;99.90
14962;DHT22;56489;53.166;10.864;2022-08-19T10:24:53;21.40;99.90
14962;DHT22;56489;53.166;10.864;2022-08-19T10:27:19;21.40;99.90
14962;DHT22;56489;53.166;10.864;2022-08-19T10:29:46;21.40;99.90
14962;DHT22;56489;53.166;10.864;2022-08-19T10:32:14;21.40;99.90
14962;DHT22;56489;53.166;10.864;2022-08-19T10:34:41;21.20;99.90
14962;DHT22;56489;53.166;10.864;2022-08-19T10:37:16;21.30;99.90
14962;DHT22;56489;53.166;10.864;2022-08-19T10:39:49;21.20;99.90
14962;DHT22;56489;53.166;10.864;2022-08-19T10:42:16;21.10;99.90
14962;DHT22;56489;53.166;10.864;2022-08-19T10:44:44;21.00;99.90
14962;DHT22;56489;53.166;10.864;2022-08-19T10:47:13;21.10;99.90
14962;DHT22;56489;53.166;10.864;2022-08-19T10:49:52;21.10;99.90
14962;DHT22;56489;53.166;10.864;2022-08-19T10:52:43;21.00;99.90
14962;DHT22;56489;53.166;10.864;2022-08-19T10:55:17;20.90;99.90
14962;DHT22;56489;53.166;10.864;2022-08-19T10:58:03;20.90;99.90
14962;DHT22;56489;53.166;10.864;2022-08-19T11:00:30;20.90;99.90
14962;DHT22;56489;53.166;10.864;2022-08-19T11:02:58;20.80;99.90
14962;DHT22;56489;53.166;10.864;2022-08-19T11:05:24;20.80;99.90
14962;DHT22;56489;53.166;10.864;2022-08-19T11:07:51;20.70;99.90
14962;DHT22;56489;53.166;10.864;2022-08-19T11:10:19;20.70;99.90
14962;DHT22;56489;53.166;10.864;2022-08-19T11:12:47;20.70;99.90
14962;DHT22;56489;53.166;10.864;2022-08-19T11:15:14;20.70;99.90
14962;DHT22;56489;53.166;10.864;2022-08-19T11:17:42;20.70;99.90
14962;DHT22;56489;53.166;10.864;2022-08-19T11:20:11;20.60;99.90
14962;DHT22;56489;53.166;10.864;2022-08-19T11:22:39;20.60;99.90
14962;DHT22;56489;53.166;10.864;2022-08-19T11:25:09;20.60;99.90
14962;DHT22;56489;53.166;10.864;2022-08-19T11:27:40;20.60;99.90
14962;DHT22;56489;53.166;10.864;2022-08-19T11:30:13;20.60;99.90
14962;DHT22;56489;53.166;10.864;2022-08-19T11:32:40;20.70;99.90
14962;DHT22;56489;53.166;10.864;2022-08-19T11:35:14;20.70;99.90
14962;DHT22;56489;53.166;10.864;2022-08-19T11:37:40;20.70;99.90
14962;DHT22;56489;53.166;10.864;2022-08-19T11:40:07;20.90;99.90
14962;DHT22;56489;53.166;10.864;2022-08-19T11:42:34;20.90;99.90
14962;DHT22;56489;53.166;10.864;2022-08-19T11:45:20;20.90;99.90
14962;DHT22;56489;53.166;10.864;2022-08-19T11:47:46;21.00;99.90
14962;DHT22;56489;53.166;10.864;2022-08-19T11:50:15;21.00;99.90
14962;DHT22;56489;53.166;10.864;2022-08-19T11:52:43;21.20;99.90
14962;DHT22;56489;53.166;10.864;2022-08-19T11:55:11;21.20;99.90
14962;DHT22;56489;53.166;10.864;2022-08-19T11:57:39;21.40;99.90
14962;DHT22;56489;53.166;10.864;2022-08-19T12:00:07;21.50;99.90
14962;DHT22;56489;53.166;10.864;2022-08-19T12:02:35;21.60;99.90
14962;DHT22;56489;53.166;10.864;2022-08-19T12:05:02;21.80;99.90
14962;DHT22;56489;53.166;10.864;2022-08-19T12:07:33;21.90;99.90
14962;DHT22;56489;53.166;10.864;2022-08-19T12:10:00;22.00;99.90
14962;DHT22;56489;53.166;10.864;2022-08-19T12:12:29;22.20;99.90
14962;DHT22;56489;53.166;10.864;2022-08-19T12:14:55;22.30;99.90
14962;DHT22;56489;53.166;10.864;2022-08-19T12:17:25;22.50;99.90
14962;DHT22;56489;53.166;10.864;2022-08-19T12:19:53;22.60;99.90
14962;DHT22;56489;53.166;10.864;2022-08-19T12:22:20;22.80;99.90
14962;DHT22;56489;53.166;10.864;2022-08-19T12:24:47;22.70;99.90
14962;DHT22;56489;53.166;10.864;2022-08-19T12:27:16;22.90;99.90
14962;DHT22;56489;53.166;10.864;2022-08-19T12:30:04;23.10;99.90
14962;DHT22;56489;53.166;10.864;2022-08-19T12:32:31;23.10;99.90
14962;DHT22;56489;53.166;10.864;2022-08-19T12:34:57;23.10;99.90
14962;DHT22;56489;53.166;10.864;2022-08-19T12:37:24;23.00;99.90
14962;DHT22;56489;53.166;10.864;2022-08-19T12:39:51;23.10;99.90
14962;DHT22;56489;53.166;10.864;2022-08-19T12:42:17;23.00;99.90
14962;DHT22;56489;53.166;10.864;2022-08-19T12:44:44;22.90;99.90
14962;DHT22;56489;53.166;10.864;2022-08-19T12:47:12;23.10;99.90
14962;DHT22;56489;53.166;10.864;2022-08-19T12:49:41;22.90;99.90
14962;DHT22;56489;53.166;10.864;2022-08-19T12:52:24;22.70;99.90
14962;DHT22;56489;53.166;10.864;2022-08-19T12:54:53;22.60;99.90
14962;DHT22;56489;53.166;10.864;2022-08-19T12:57:22;22.50;99.90
14962;DHT22;56489;53.166;10.864;2022-08-19T13:00:00;22.40;99.90
14962;DHT22;56489;53.166;10.864;2022-08-19T13:02:26;22.40;99.90
14962;DHT22;56489;53.166;10.864;2022-08-19T13:04:53;22.30;99.90
14962;DHT22;56489;53.166;10.864;2022-08-19T13:07:20;22.30;99.90
14962;DHT22;56489;53.166;10.864;2022-08-19T13:09:46;22.30;99.90
14962;DHT22;56489;53.166;10.864;2022-08-19T13:12:13;22.30;99.90
14962;DHT22;56489;53.166;10.864;2022-08-19T13:14:40;22.30;99.90
14962;DHT22;56489;53.166;10.864;2022-08-19T13:17:07;22.30;99.90
14962;DHT22;56489;53.166;10.864;2022-08-19T13:19:36;22.30;99.90
14962;DHT22;56489;53.166;10.864;2022-08-19T13:22:03;22.20;99.90
14962;DHT22;56489;53.166;10.864;2022-08-19T13:24:35;22.30;99.90
14962;DHT22;56489;53.166;10.864;2022-08-19T13:27:03;22.30;99.90
14962;DHT22;56489;53.166;10.864;2022-08-19T13:29:30;22.30;99.90
14962;DHT22;56489;53.166;10.864;2022-08-19T13:32:15;22.30;99.90
14962;DHT22;56489;53.166;10.864;2022-08-19T13:35:02;22.10;99.90
14962;DHT22;56489;53.166;10.864;2022-08-19T13:37:28;22.00;99.90
14962;DHT22;56489;53.166;10.864;2022-08-19T13:42:39;21.90;99.90
14962;DHT22;56489;53.166;10.864;2022-08-19T13:45:07;21.90;99.90
14962;DHT22;56489;53.166;10.864;2022-08-19T13:47:34;21.80;99.90
14962;DHT22;56489;53.166;10.864;2022-08-19T13:50:04;21.80;99.90
14962;DHT22;56489;53.166;10.864;2022-08-19T13:52:31;21.70;99.90
14962;DHT22;56489;53.166;10.864;2022-08-19T13:54:57;21.70;99.90
14962;DHT22;56489;53.166;10.864;2022-08-19T13:57:24;21.70;99.90
14962;DHT22;56489;53.166;10.864;2022-08-19T13:59:50;21.90;99.90
14962;DHT22;56489;53.166;10.864;2022-08-19T14:02:17;21.90;99.90
14962;DHT22;56489;53.166;10.864;2022-08-19T14:04:44;22.00;99.90
14962;DHT22;56489;53.166;10.864;2022-08-19T14:07:11;22.10;99.90
14962;DHT22;56489;53.166;10.864;2022-08-19T14:09:37;22.20;99.90
14962;DHT22;56489;53.166;10.864;2022-08-19T14:12:04;22.40;99.90
14962;DHT22;56489;53.166;10.864;2022-08-19T14:14:31;22.40;99.90
14962;DHT22;56489;53.166;10.864;2022-08-19T14:16:58;22.50;99.90
14962;DHT22;56489;53.166;10.864;2022-08-19T14:19:24;22.50;99.90
14962;DHT22;56489;53.166;10.864;2022-08-19T14:21:55;22.50;99.90
14962;DHT22;56489;53.166;10.864;2022-08-19T14:24:23;22.60;99.90
14962;DHT22;56489;53.166;10.864;2022-08-19T14:26:50;22.90;99.90
14962;DHT22;56489;53.166;10.864;2022-08-19T14:29:17;23.00;99.90
14962;DHT22;56489;53.166;10.864;2022-08-19T14:31:44;23.10;99.90
14962;DHT22;56489;53.166;10.864;2022-08-19T14:34:10;23.10;99.90
14962;DHT22;56489;53.166;10.864;2022-08-19T14:36:39;23.20;99.90
14962;DHT22;56489;53.166;10.864;2022-08-19T14:39:05;23.30;99.90
14962;DHT22;56489;53.166;10.864;2022-08-19T14:41:32;23.30;99.90
14962;DHT22;56489;53.166;10.864;2022-08-19T14:43:59;23.30;99.90
14962;DHT22;56489;53.166;10.864;2022-08-19T14:46:27;23.20;99.90
14962;DHT22;56489;53.166;10.864;2022-08-19T14:48:55;23.40;99.90
14962;DHT22;56489;53.166;10.864;2022-08-19T14:51:25;23.30;99.90
14962;DHT22;56489;53.166;10.864;2022-08-19T14:53:53;23.30;99.90
14962;DHT22;56489;53.166;10.864;2022-08-19T14:56:23;23.30;99.90
14962;DHT22;56489;53.166;10.864;2022-08-19T14:58:50;23.40;99.90
14962;DHT22;56489;53.166;10.864;2022-08-19T15:01:18;23.30;99.90
14962;DHT22;56489;53.166;10.864;2022-08-19T15:03:49;23.20;99.90
14962;DHT22;56489;53.166;10.864;2022-08-19T15:06:19;23.20;99.90
14962;DHT22;56489;53.166;10.864;2022-08-19T15:08:45;23.10;99.90
14962;DHT22;56489;53.166;10.864;2022-08-19T15:11:16;23.20;99.90
14962;DHT22;56489;53.166;10.864;2022-08-19T15:13:43;23.30;99.90
14962;DHT22;56489;53.166;10.864;2022-08-19T15:16:10;23.50;99.90
14962;DHT22;56489;53.166;10.864;2022-08-19T15:18:44;23.60;99.90
14962;DHT22;56489;53.166;10.864;2022-08-19T15:21:13;23.80;99.90
14962;DHT22;56489;53.166;10.864;2022-08-19T15:23:40;24.00;99.90
14962;DHT22;56489;53.166;10.864;2022-08-19T15:26:11;24.10;99.90
14962;DHT22;56489;53.166;10.864;2022-08-19T15:28:41;24.40;99.90
14962;DHT22;56489;53.166;10.864;2022-08-19T15:31:08;24.40;99.90
14962;DHT22;56489;53.166;10.864;2022-08-19T15:33:50;24.50;99.90
14962;DHT22;56489;53.166;10.864;2022-08-19T15:36:17;24.40;99.90
14962;DHT22;56489;53.166;10.864;2022-08-19T15:38:44;24.40;99.90
14962;DHT22;56489;53.166;10.864;2022-08-19T15:41:20;24.40;99.90
14962;DHT22;56489;53.166;10.864;2022-08-19T15:43:59;24.30;99.90
14962;DHT22;56489;53.166;10.864;2022-08-19T15:46:28;24.20;99.90
14962;DHT22;56489;53.166;10.864;2022-08-19T15:48:57;24.10;99.90